Time,TemperatureF,DewpointF,PressureIn,WindDirection,WindDirectionDegrees,WindSpeedMPH,WindSpeedGustMPH,Humidity,HourlyPrecipIn,Conditions,Clouds,dailyrainin,SoftwareType,DateUTC
2013-05-22 00:00:00,26.0,26.0,-100.00,WNW,284,8.0,18.0,98,0.05,,,-99.99,,2013-05-22 07:00:00,
2013-05-22 00:52:00,26.0,26.0,-100.00,WNW,284,8.0,18.0,98,0.05,,,-99.99,,2013-05-22 07:52:00,
2013-05-22 01:00:00,25.0,25.0,-100.00,WNW,283,9.0,20.0,98,0.04,,,-99.99,,2013-05-22 08:00:00,
2013-05-22 01:52:00,25.0,25.0,-100.00,WNW,283,9.0,20.0,98,0.04,,,-99.99,,2013-05-22 08:52:00,
2013-05-22 02:00:00,25.0,25.0,-100.00,WNW,282,9.0,21.0,98,0.06,,,-99.99,,2013-05-22 09:00:00,
2013-05-22 02:53:00,25.0,25.0,-100.00,WNW,282,9.0,21.0,98,0.06,,,-99.99,,2013-05-22 09:53:00,
2013-05-22 03:00:00,24.0,24.0,-100.00,WNW,284,9.0,24.0,98,0.07,,,-99.99,,2013-05-22 10:00:00,
2013-05-22 03:52:00,24.0,24.0,-100.00,WNW,284,9.0,24.0,98,0.07,,,-99.99,,2013-05-22 10:52:00,
2013-05-22 04:00:00,24.0,24.0,-100.00,WNW,282,13.0,27.0,98,0.04,,,-99.99,,2013-05-22 11:00:00,
2013-05-22 04:52:00,24.0,24.0,-100.00,WNW,282,13.0,27.0,98,0.04,,,-99.99,,2013-05-22 11:52:00,
2013-05-22 05:00:00,23.0,22.0,-100.00,West,279,12.0,27.0,97,0.08,,,-99.99,,2013-05-22 12:00:00,
2013-05-22 05:52:00,23.0,22.0,-100.00,West,279,12.0,27.0,97,0.08,,,-99.99,,2013-05-22 12:52:00,
2013-05-22 06:00:00,23.0,22.0,-100.00,West,272,13.0,29.0,97,0.05,,,-99.99,,2013-05-22 13:00:00,
2013-05-22 06:52:00,23.0,22.0,-100.00,West,272,13.0,29.0,97,0.05,,,-99.99,,2013-05-22 13:52:00,
2013-05-22 07:00:00,24.0,23.0,-100.00,West,276,10.0,20.0,97,0.03,,,-99.99,,2013-05-22 14:00:00,
2013-05-22 07:52:00,24.0,23.0,-100.00,West,276,10.0,20.0,97,0.03,,,-99.99,,2013-05-22 14:52:00,
2013-05-22 08:00:00,24.0,23.0,-100.00,West,275,9.0,24.0,97,0.04,,,-99.99,,2013-05-22 15:00:00,
2013-05-22 08:53:00,24.0,23.0,-100.00,West,275,9.0,24.0,97,0.04,,,-99.99,,2013-05-22 15:53:00,
2013-05-22 09:00:00,27.0,26.0,-100.00,West,280,8.0,14.0,97,0.04,,,-99.99,,2013-05-22 16:00:00,
2013-05-22 09:52:00,27.0,26.0,-100.00,West,280,8.0,14.0,97,0.04,,,-99.99,,2013-05-22 16:52:00,
2013-05-22 10:00:00,29.0,27.0,-100.00,WNW,282,8.0,15.0,94,0.12,,,-99.99,,2013-05-22 17:00:00,
2013-05-22 10:53:00,29.0,27.0,-100.00,WNW,282,8.0,15.0,94,0.12,,,-99.99,,2013-05-22 17:53:00,
2013-05-22 11:00:00,29.0,27.0,-100.00,West,276,9.0,25.0,94,0.00,,,-99.99,,2013-05-22 18:00:00,
2013-05-22 11:52:00,29.0,27.0,-100.00,West,276,9.0,25.0,94,0.00,,,-99.99,,2013-05-22 18:52:00,
2013-05-22 13:00:00,33.0,30.0,-100.00,WNW,284,6.0,12.0,87,0.00,,,-99.99,,2013-05-22 20:00:00,
2013-05-22 13:52:00,33.0,30.0,-100.00,WNW,284,6.0,12.0,87,0.00,,,-99.99,,2013-05-22 20:52:00,
2013-05-22 14:00:00,35.0,31.0,-100.00,WNW,285,3.0,9.0,84,0.00,,,-99.99,,2013-05-22 21:00:00,
2013-05-22 14:53:00,35.0,31.0,-100.00,WNW,285,3.0,9.0,84,0.00,,,-99.99,,2013-05-22 21:53:00,
2013-05-22 15:00:00,33.0,30.0,-100.00,WNW,285,3.0,7.0,89,0.00,,,-99.99,,2013-05-22 22:00:00,
2013-05-22 15:52:00,33.0,30.0,-100.00,WNW,285,3.0,7.0,89,0.00,,,-99.99,,2013-05-22 22:52:00,
2013-05-22 16:00:00,33.0,30.0,-100.00,WNW,284,3.0,8.0,90,0.00,,,-99.99,,2013-05-22 23:00:00,
2013-05-22 16:52:00,33.0,30.0,-100.00,WNW,284,3.0,8.0,90,0.00,,,-99.99,,2013-05-22 23:52:00,
2013-05-22 17:00:00,30.0,28.0,-100.00,WNW,284,3.0,6.0,93,0.00,,,-99.99,,2013-05-23 00:00:00,
2013-05-22 17:52:00,30.0,28.0,-100.00,WNW,284,3.0,6.0,93,0.00,,,-99.99,,2013-05-23 00:52:00,
2013-05-22 18:00:00,30.0,28.0,-100.00,West,281,3.0,6.0,91,0.00,,,-99.99,,2013-05-23 01:00:00,
2013-05-22 18:52:00,30.0,28.0,-100.00,West,281,3.0,6.0,91,0.00,,,-99.99,,2013-05-23 01:52:00,
2013-05-22 19:00:00,30.0,28.0,-100.00,West,280,3.0,5.0,94,0.00,,,-99.99,,2013-05-23 02:00:00,
2013-05-22 20:00:00,29.0,28.0,-100.00,West,274,3.0,8.0,96,0.00,,,-99.99,,2013-05-23 03:00:00,
2013-05-22 20:53:00,29.0,28.0,-100.00,West,274,3.0,8.0,96,0.00,,,-99.99,,2013-05-23 03:53:00,
2013-05-22 21:00:00,29.0,28.0,-100.00,SE,133,5.0,6.0,97,0.00,,,-99.99,,2013-05-23 04:00:00,
2013-05-22 21:52:00,29.0,28.0,-100.00,SE,133,5.0,6.0,97,0.00,,,-99.99,,2013-05-23 04:52:00,
2013-05-22 22:00:00,28.0,27.0,-100.00,ESE,113,6.0,9.0,97,0.03,,,-99.99,,2013-05-23 05:00:00,
2013-05-22 22:52:00,28.0,27.0,-100.00,ESE,113,6.0,9.0,97,0.03,,,-99.99,,2013-05-23 05:52:00,
2013-05-22 23:00:00,28.0,28.0,-100.00,East,100,7.0,9.0,98,0.05,,,-99.99,,2013-05-23 06:00:00,
2013-05-22 23:52:00,28.0,28.0,-100.00,East,100,7.0,9.0,98,0.05,,,-99.99,,2013-05-23 06:52:00,